sensor_id;sensor_type;location;lat;lon;timestamp;P1;durP1;ratioP1;P2;durP2;ratioP2
43509;SDS011;29105;57.764;40.952;2023-01-23T00:01:49;16.50;;;6.32;;
43509;SDS011;29105;57.764;40.952;2023-01-23T00:04:16;13.70;;;6.85;;
43509;SDS011;29105;57.764;40.952;2023-01-23T00:06:42;11.52;;;5.22;;
43509;SDS011;29105;57.764;40.952;2023-01-23T00:09:08;16.05;;;6.25;;
43509;SDS011;29105;57.764;40.952;2023-01-23T00:11:34;18.42;;;6.18;;
43509;SDS011;29105;57.764;40.952;2023-01-23T00:14:00;16.05;;;7.25;;
43509;SDS011;29105;57.764;40.952;2023-01-23T00:16:27;21.63;;;8.15;;
43509;SDS011;29105;57.764;40.952;2023-01-23T00:18:55;15.73;;;5.47;;
43509;SDS011;29105;57.764;40.952;2023-01-23T00:21:22;13.35;;;5.38;;
43509;SDS011;29105;57.764;40.952;2023-01-23T00:23:51;14.65;;;6.20;;
43509;SDS011;29105;57.764;40.952;2023-01-23T00:26:22;24.83;;;8.10;;
43509;SDS011;29105;57.764;40.952;2023-01-23T00:28:59;21.15;;;7.82;;
43509;SDS011;29105;57.764;40.952;2023-01-23T00:31:26;14.80;;;7.13;;
43509;SDS011;29105;57.764;40.952;2023-01-23T00:33:54;14.23;;;5.78;;
43509;SDS011;29105;57.764;40.952;2023-01-23T00:36:26;26.02;;;7.93;;
43509;SDS011;29105;57.764;40.952;2023-01-23T00:38:55;14.18;;;6.15;;
43509;SDS011;29105;57.764;40.952;2023-01-23T00:41:21;15.13;;;5.80;;
43509;SDS011;29105;57.764;40.952;2023-01-23T00:43:47;19.52;;;6.43;;
43509;SDS011;29105;57.764;40.952;2023-01-23T00:46:16;16.17;;;6.00;;
43509;SDS011;29105;57.764;40.952;2023-01-23T00:48:42;21.88;;;7.40;;
43509;SDS011;29105;57.764;40.952;2023-01-23T00:51:07;13.85;;;7.10;;
43509;SDS011;29105;57.764;40.952;2023-01-23T00:53:37;19.67;;;7.90;;
43509;SDS011;29105;57.764;40.952;2023-01-23T00:56:03;18.55;;;5.97;;
43509;SDS011;29105;57.764;40.952;2023-01-23T00:58:29;17.67;;;7.45;;
43509;SDS011;29105;57.764;40.952;2023-01-23T01:00:55;16.90;;;6.15;;
43509;SDS011;29105;57.764;40.952;2023-01-23T01:03:20;17.10;;;5.75;;
43509;SDS011;29105;57.764;40.952;2023-01-23T01:05:46;19.65;;;7.07;;
43509;SDS011;29105;57.764;40.952;2023-01-23T01:08:12;17.35;;;5.70;;
43509;SDS011;29105;57.764;40.952;2023-01-23T01:10:41;22.08;;;7.88;;
43509;SDS011;29105;57.764;40.952;2023-01-23T01:13:07;17.80;;;7.00;;
43509;SDS011;29105;57.764;40.952;2023-01-23T01:15:34;18.25;;;7.22;;
43509;SDS011;29105;57.764;40.952;2023-01-23T01:18:00;23.58;;;7.57;;
43509;SDS011;29105;57.764;40.952;2023-01-23T01:20:26;15.38;;;6.38;;
43509;SDS011;29105;57.764;40.952;2023-01-23T01:22:53;14.18;;;5.07;;
43509;SDS011;29105;57.764;40.952;2023-01-23T01:25:21;18.75;;;7.95;;
43509;SDS011;29105;57.764;40.952;2023-01-23T01:27:50;15.77;;;7.05;;
43509;SDS011;29105;57.764;40.952;2023-01-23T01:30:16;11.68;;;5.65;;
43509;SDS011;29105;57.764;40.952;2023-01-23T01:32:43;14.90;;;6.10;;
43509;SDS011;29105;57.764;40.952;2023-01-23T01:35:09;13.90;;;5.18;;
43509;SDS011;29105;57.764;40.952;2023-01-23T01:37:35;16.75;;;6.93;;
43509;SDS011;29105;57.764;40.952;2023-01-23T01:40:05;19.80;;;7.28;;
43509;SDS011;29105;57.764;40.952;2023-01-23T01:42:37;13.38;;;5.70;;
43509;SDS011;29105;57.764;40.952;2023-01-23T01:45:04;19.17;;;8.27;;
43509;SDS011;29105;57.764;40.952;2023-01-23T01:47:30;19.98;;;7.15;;
43509;SDS011;29105;57.764;40.952;2023-01-23T01:49:58;18.30;;;7.63;;
43509;SDS011;29105;57.764;40.952;2023-01-23T01:52:26;16.48;;;6.32;;
43509;SDS011;29105;57.764;40.952;2023-01-23T01:54:56;18.60;;;6.63;;
43509;SDS011;29105;57.764;40.952;2023-01-23T01:57:26;14.52;;;6.53;;
43509;SDS011;29105;57.764;40.952;2023-01-23T02:05:09;18.67;;;6.97;;
43509;SDS011;29105;57.764;40.952;2023-01-23T02:07:41;11.70;;;6.18;;
43509;SDS011;29105;57.764;40.952;2023-01-23T02:10:10;14.50;;;6.57;;
43509;SDS011;29105;57.764;40.952;2023-01-23T02:12:36;15.43;;;6.43;;
43509;SDS011;29105;57.764;40.952;2023-01-23T02:15:04;17.95;;;6.03;;
43509;SDS011;29105;57.764;40.952;2023-01-23T02:17:32;17.58;;;6.40;;
43509;SDS011;29105;57.764;40.952;2023-01-23T02:25:34;19.38;;;7.32;;
43509;SDS011;29105;57.764;40.952;2023-01-23T02:28:05;13.50;;;6.18;;
43509;SDS011;29105;57.764;40.952;2023-01-23T02:30:33;17.17;;;6.35;;
43509;SDS011;29105;57.764;40.952;2023-01-23T02:35:34;17.60;;;6.22;;
43509;SDS011;29105;57.764;40.952;2023-01-23T02:38:03;15.00;;;6.45;;
43509;SDS011;29105;57.764;40.952;2023-01-23T02:40:33;15.77;;;6.07;;
43509;SDS011;29105;57.764;40.952;2023-01-23T02:43:04;17.52;;;7.40;;
43509;SDS011;29105;57.764;40.952;2023-01-23T02:45:31;14.27;;;6.22;;
43509;SDS011;29105;57.764;40.952;2023-01-23T02:47:59;16.63;;;7.07;;
43509;SDS011;29105;57.764;40.952;2023-01-23T02:50:26;15.82;;;6.93;;
43509;SDS011;29105;57.764;40.952;2023-01-23T02:52:52;21.00;;;6.53;;
43509;SDS011;29105;57.764;40.952;2023-01-23T02:55:19;19.02;;;7.40;;
43509;SDS011;29105;57.764;40.952;2023-01-23T02:57:46;23.48;;;6.97;;
43509;SDS011;29105;57.764;40.952;2023-01-23T03:00:12;19.92;;;7.53;;
43509;SDS011;29105;57.764;40.952;2023-01-23T03:02:42;23.77;;;6.88;;
43509;SDS011;29105;57.764;40.952;2023-01-23T03:05:08;18.20;;;8.32;;
43509;SDS011;29105;57.764;40.952;2023-01-23T03:07:34;17.95;;;6.50;;
43509;SDS011;29105;57.764;40.952;2023-01-23T03:10:00;19.35;;;7.07;;
43509;SDS011;29105;57.764;40.952;2023-01-23T03:12:26;15.90;;;7.88;;
43509;SDS011;29105;57.764;40.952;2023-01-23T03:14:52;17.88;;;8.02;;
43509;SDS011;29105;57.764;40.952;2023-01-23T03:17:20;21.95;;;6.93;;
43509;SDS011;29105;57.764;40.952;2023-01-23T03:19:47;16.70;;;6.93;;
43509;SDS011;29105;57.764;40.952;2023-01-23T03:22:12;16.23;;;7.57;;
43509;SDS011;29105;57.764;40.952;2023-01-23T03:24:39;15.32;;;5.60;;
43509;SDS011;29105;57.764;40.952;2023-01-23T03:27:05;18.23;;;7.35;;
43509;SDS011;29105;57.764;40.952;2023-01-23T03:29:30;16.27;;;7.20;;
43509;SDS011;29105;57.764;40.952;2023-01-23T03:32:15;16.15;;;6.95;;
43509;SDS011;29105;57.764;40.952;2023-01-23T03:34:41;13.10;;;6.28;;
43509;SDS011;29105;57.764;40.952;2023-01-23T03:37:08;21.77;;;7.55;;
43509;SDS011;29105;57.764;40.952;2023-01-23T03:39:34;17.98;;;6.38;;
43509;SDS011;29105;57.764;40.952;2023-01-23T03:42:19;18.92;;;7.65;;
43509;SDS011;29105;57.764;40.952;2023-01-23T03:44:45;19.73;;;6.80;;
43509;SDS011;29105;57.764;40.952;2023-01-23T03:47:10;28.58;;;9.38;;
43509;SDS011;29105;57.764;40.952;2023-01-23T03:49:37;29.92;;;10.65;;
43509;SDS011;29105;57.764;40.952;2023-01-23T03:52:03;22.77;;;9.05;;
43509;SDS011;29105;57.764;40.952;2023-01-23T03:54:31;18.77;;;8.40;;
43509;SDS011;29105;57.764;40.952;2023-01-23T03:56:57;23.42;;;9.05;;
43509;SDS011;29105;57.764;40.952;2023-01-23T03:59:23;21.35;;;7.68;;
43509;SDS011;29105;57.764;40.952;2023-01-23T04:01:49;19.08;;;7.53;;
43509;SDS011;29105;57.764;40.952;2023-01-23T04:04:15;21.00;;;8.65;;
43509;SDS011;29105;57.764;40.952;2023-01-23T04:06:40;17.40;;;8.00;;
43509;SDS011;29105;57.764;40.952;2023-01-23T04:09:06;28.33;;;8.75;;
43509;SDS011;29105;57.764;40.952;2023-01-23T04:11:32;22.92;;;8.30;;
43509;SDS011;29105;57.764;40.952;2023-01-23T04:13:57;28.48;;;9.50;;
43509;SDS011;29105;57.764;40.952;2023-01-23T04:16:25;25.05;;;9.05;;
43509;SDS011;29105;57.764;40.952;2023-01-23T04:18:52;29.67;;;9.88;;
43509;SDS011;29105;57.764;40.952;2023-01-23T04:21:18;28.95;;;10.60;;
43509;SDS011;29105;57.764;40.952;2023-01-23T04:23:44;25.23;;;9.98;;
43509;SDS011;29105;57.764;40.952;2023-01-23T04:26:10;24.42;;;9.50;;
43509;SDS011;29105;57.764;40.952;2023-01-23T04:28:36;24.17;;;9.25;;
43509;SDS011;29105;57.764;40.952;2023-01-23T04:31:02;29.45;;;9.57;;
43509;SDS011;29105;57.764;40.952;2023-01-23T04:33:28;24.48;;;9.75;;
43509;SDS011;29105;57.764;40.952;2023-01-23T04:35:58;23.33;;;9.80;;
43509;SDS011;29105;57.764;40.952;2023-01-23T04:38:25;16.33;;;7.20;;
43509;SDS011;29105;57.764;40.952;2023-01-23T04:40:52;27.98;;;8.50;;
43509;SDS011;29105;57.764;40.952;2023-01-23T04:43:18;19.33;;;7.78;;
43509;SDS011;29105;57.764;40.952;2023-01-23T04:45:44;26.13;;;9.43;;
43509;SDS011;29105;57.764;40.952;2023-01-23T04:48:10;27.25;;;8.93;;
43509;SDS011;29105;57.764;40.952;2023-01-23T04:50:36;23.00;;;8.32;;
43509;SDS011;29105;57.764;40.952;2023-01-23T04:53:04;21.85;;;7.95;;
43509;SDS011;29105;57.764;40.952;2023-01-23T04:55:30;21.45;;;7.88;;
43509;SDS011;29105;57.764;40.952;2023-01-23T04:57:56;17.65;;;7.38;;
43509;SDS011;29105;57.764;40.952;2023-01-23T05:00:22;24.48;;;8.88;;
43509;SDS011;29105;57.764;40.952;2023-01-23T05:02:48;24.75;;;8.43;;
43509;SDS011;29105;57.764;40.952;2023-01-23T05:05:14;18.75;;;7.40;;
43509;SDS011;29105;57.764;40.952;2023-01-23T05:07:42;20.35;;;8.27;;
43509;SDS011;29105;57.764;40.952;2023-01-23T05:10:09;35.85;;;8.25;;
43509;SDS011;29105;57.764;40.952;2023-01-23T05:12:35;28.25;;;9.00;;
43509;SDS011;29105;57.764;40.952;2023-01-23T05:15:01;23.50;;;9.02;;
43509;SDS011;29105;57.764;40.952;2023-01-23T05:17:28;22.35;;;8.95;;
43509;SDS011;29105;57.764;40.952;2023-01-23T05:19:54;27.73;;;8.68;;
43509;SDS011;29105;57.764;40.952;2023-01-23T05:22:20;30.42;;;10.25;;
43509;SDS011;29105;57.764;40.952;2023-01-23T05:24:47;29.08;;;10.48;;
43509;SDS011;29105;57.764;40.952;2023-01-23T05:27:13;22.95;;;8.05;;
43509;SDS011;29105;57.764;40.952;2023-01-23T05:29:38;25.80;;;9.70;;
43509;SDS011;29105;57.764;40.952;2023-01-23T05:32:04;23.70;;;8.15;;
43509;SDS011;29105;57.764;40.952;2023-01-23T05:34:30;16.98;;;6.22;;
43509;SDS011;29105;57.764;40.952;2023-01-23T05:36:55;26.50;;;8.45;;
43509;SDS011;29105;57.764;40.952;2023-01-23T05:39:21;27.73;;;8.98;;
43509;SDS011;29105;57.764;40.952;2023-01-23T05:41:47;20.38;;;7.55;;
43509;SDS011;29105;57.764;40.952;2023-01-23T05:44:14;24.23;;;9.25;;
43509;SDS011;29105;57.764;40.952;2023-01-23T05:46:39;25.75;;;9.48;;
43509;SDS011;29105;57.764;40.952;2023-01-23T05:49:05;22.88;;;9.00;;
43509;SDS011;29105;57.764;40.952;2023-01-23T05:51:31;31.17;;;10.50;;
43509;SDS011;29105;57.764;40.952;2023-01-23T05:54:01;30.35;;;10.70;;
43509;SDS011;29105;57.764;40.952;2023-01-23T05:56:27;31.83;;;9.48;;
43509;SDS011;29105;57.764;40.952;2023-01-23T05:58:53;26.80;;;8.35;;
43509;SDS011;29105;57.764;40.952;2023-01-23T06:01:19;20.27;;;7.47;;
43509;SDS011;29105;57.764;40.952;2023-01-23T06:03:45;32.72;;;11.02;;
43509;SDS011;29105;57.764;40.952;2023-01-23T06:06:12;33.63;;;10.43;;
43509;SDS011;29105;57.764;40.952;2023-01-23T06:08:38;27.63;;;9.48;;
43509;SDS011;29105;57.764;40.952;2023-01-23T06:11:04;24.27;;;10.05;;
43509;SDS011;29105;57.764;40.952;2023-01-23T06:13:30;30.02;;;10.13;;
43509;SDS011;29105;57.764;40.952;2023-01-23T06:15:56;30.98;;;10.05;;
43509;SDS011;29105;57.764;40.952;2023-01-23T06:18:25;28.35;;;10.40;;
43509;SDS011;29105;57.764;40.952;2023-01-23T06:20:55;30.92;;;11.25;;
43509;SDS011;29105;57.764;40.952;2023-01-23T06:23:25;35.92;;;10.52;;
43509;SDS011;29105;57.764;40.952;2023-01-23T06:25:53;22.63;;;8.63;;
43509;SDS011;29105;57.764;40.952;2023-01-23T06:28:19;27.27;;;8.23;;
43509;SDS011;29105;57.764;40.952;2023-01-23T06:30:44;28.55;;;10.27;;
43509;SDS011;29105;57.764;40.952;2023-01-23T06:33:10;25.38;;;7.90;;
43509;SDS011;29105;57.764;40.952;2023-01-23T06:35:35;25.77;;;8.30;;
43509;SDS011;29105;57.764;40.952;2023-01-23T06:38:01;23.92;;;8.40;;
43509;SDS011;29105;57.764;40.952;2023-01-23T06:40:27;33.65;;;11.57;;
43509;SDS011;29105;57.764;40.952;2023-01-23T06:42:55;26.10;;;9.57;;
43509;SDS011;29105;57.764;40.952;2023-01-23T06:45:21;23.92;;;8.27;;
43509;SDS011;29105;57.764;40.952;2023-01-23T06:47:46;25.73;;;9.65;;
43509;SDS011;29105;57.764;40.952;2023-01-23T06:50:12;39.20;;;13.63;;
43509;SDS011;29105;57.764;40.952;2023-01-23T06:52:39;26.08;;;9.63;;
43509;SDS011;29105;57.764;40.952;2023-01-23T06:55:05;34.20;;;10.57;;
43509;SDS011;29105;57.764;40.952;2023-01-23T06:57:32;30.95;;;11.13;;
43509;SDS011;29105;57.764;40.952;2023-01-23T06:59:59;33.25;;;9.35;;
43509;SDS011;29105;57.764;40.952;2023-01-23T07:02:25;27.40;;;8.23;;
43509;SDS011;29105;57.764;40.952;2023-01-23T07:04:51;30.13;;;8.63;;
43509;SDS011;29105;57.764;40.952;2023-01-23T07:07:16;26.20;;;9.75;;
43509;SDS011;29105;57.764;40.952;2023-01-23T07:09:42;25.77;;;9.98;;
43509;SDS011;29105;57.764;40.952;2023-01-23T07:12:08;31.00;;;10.10;;
43509;SDS011;29105;57.764;40.952;2023-01-23T07:14:34;39.30;;;12.23;;
43509;SDS011;29105;57.764;40.952;2023-01-23T07:17:00;33.67;;;9.93;;
43509;SDS011;29105;57.764;40.952;2023-01-23T07:19:26;28.25;;;11.25;;
43509;SDS011;29105;57.764;40.952;2023-01-23T07:21:53;26.27;;;9.15;;
43509;SDS011;29105;57.764;40.952;2023-01-23T07:24:19;24.15;;;8.63;;
43509;SDS011;29105;57.764;40.952;2023-01-23T07:26:45;33.08;;;9.98;;
43509;SDS011;29105;57.764;40.952;2023-01-23T07:29:11;32.45;;;10.68;;
43509;SDS011;29105;57.764;40.952;2023-01-23T07:31:38;29.50;;;11.07;;
43509;SDS011;29105;57.764;40.952;2023-01-23T07:34:04;29.50;;;10.35;;
43509;SDS011;29105;57.764;40.952;2023-01-23T07:36:29;29.38;;;9.68;;
43509;SDS011;29105;57.764;40.952;2023-01-23T07:38:55;32.47;;;9.73;;
43509;SDS011;29105;57.764;40.952;2023-01-23T07:41:23;29.65;;;11.00;;
43509;SDS011;29105;57.764;40.952;2023-01-23T07:43:52;26.92;;;9.45;;
43509;SDS011;29105;57.764;40.952;2023-01-23T07:46:18;33.20;;;9.98;;
43509;SDS011;29105;57.764;40.952;2023-01-23T07:48:44;26.92;;;10.48;;
43509;SDS011;29105;57.764;40.952;2023-01-23T07:51:13;35.97;;;10.20;;
43509;SDS011;29105;57.764;40.952;2023-01-23T07:53:39;26.27;;;10.80;;
43509;SDS011;29105;57.764;40.952;2023-01-23T07:56:05;30.30;;;11.13;;
43509;SDS011;29105;57.764;40.952;2023-01-23T07:58:31;28.55;;;10.60;;
43509;SDS011;29105;57.764;40.952;2023-01-23T08:00:57;27.77;;;10.00;;
43509;SDS011;29105;57.764;40.952;2023-01-23T08:03:22;27.58;;;11.05;;
43509;SDS011;29105;57.764;40.952;2023-01-23T08:05:48;30.08;;;8.88;;
43509;SDS011;29105;57.764;40.952;2023-01-23T08:08:14;30.13;;;8.27;;
43509;SDS011;29105;57.764;40.952;2023-01-23T08:10:40;30.73;;;10.18;;
43509;SDS011;29105;57.764;40.952;2023-01-23T08:13:06;31.80;;;9.70;;
43509;SDS011;29105;57.764;40.952;2023-01-23T08:15:32;28.30;;;10.18;;
43509;SDS011;29105;57.764;40.952;2023-01-23T08:18:01;27.10;;;8.73;;
43509;SDS011;29105;57.764;40.952;2023-01-23T08:20:26;28.77;;;8.70;;
43509;SDS011;29105;57.764;40.952;2023-01-23T08:22:52;25.98;;;9.00;;
43509;SDS011;29105;57.764;40.952;2023-01-23T08:25:17;21.02;;;8.43;;
43509;SDS011;29105;57.764;40.952;2023-01-23T08:27:43;31.05;;;9.85;;
43509;SDS011;29105;57.764;40.952;2023-01-23T08:30:09;26.65;;;9.05;;
43509;SDS011;29105;57.764;40.952;2023-01-23T08:32:35;27.20;;;8.50;;
43509;SDS011;29105;57.764;40.952;2023-01-23T08:35:01;29.27;;;9.77;;
43509;SDS011;29105;57.764;40.952;2023-01-23T08:37:30;24.45;;;9.80;;
43509;SDS011;29105;57.764;40.952;2023-01-23T08:39:59;25.77;;;9.38;;
43509;SDS011;29105;57.764;40.952;2023-01-23T08:42:25;25.25;;;10.15;;
43509;SDS011;29105;57.764;40.952;2023-01-23T08:44:50;28.85;;;10.40;;
43509;SDS011;29105;57.764;40.952;2023-01-23T08:47:17;30.98;;;10.10;;
43509;SDS011;29105;57.764;40.952;2023-01-23T08:49:42;32.42;;;9.70;;
43509;SDS011;29105;57.764;40.952;2023-01-23T08:52:08;33.40;;;9.93;;
43509;SDS011;29105;57.764;40.952;2023-01-23T08:54:34;28.42;;;10.07;;
43509;SDS011;29105;57.764;40.952;2023-01-23T08:56:59;30.15;;;10.60;;
43509;SDS011;29105;57.764;40.952;2023-01-23T08:59:28;27.20;;;9.65;;
43509;SDS011;29105;57.764;40.952;2023-01-23T09:01:54;27.30;;;10.80;;
43509;SDS011;29105;57.764;40.952;2023-01-23T09:04:19;27.77;;;9.55;;
43509;SDS011;29105;57.764;40.952;2023-01-23T09:06:45;29.55;;;9.98;;
43509;SDS011;29105;57.764;40.952;2023-01-23T09:09:10;34.97;;;11.13;;
43509;SDS011;29105;57.764;40.952;2023-01-23T09:11:36;35.40;;;10.95;;
43509;SDS011;29105;57.764;40.952;2023-01-23T09:14:02;31.35;;;9.45;;
43509;SDS011;29105;57.764;40.952;2023-01-23T09:16:27;37.65;;;10.80;;
43509;SDS011;29105;57.764;40.952;2023-01-23T09:18:53;25.10;;;10.07;;
43509;SDS011;29105;57.764;40.952;2023-01-23T09:21:19;28.05;;;10.55;;
43509;SDS011;29105;57.764;40.952;2023-01-23T09:23:46;39.47;;;11.93;;
43509;SDS011;29105;57.764;40.952;2023-01-23T09:26:12;33.30;;;11.32;;
43509;SDS011;29105;57.764;40.952;2023-01-23T09:28:39;28.40;;;10.23;;
43509;SDS011;29105;57.764;40.952;2023-01-23T09:31:09;37.13;;;10.80;;
43509;SDS011;29105;57.764;40.952;2023-01-23T09:33:38;28.10;;;10.77;;
43509;SDS011;29105;57.764;40.952;2023-01-23T09:36:05;30.98;;;11.07;;
43509;SDS011;29105;57.764;40.952;2023-01-23T09:38:31;26.00;;;9.40;;
43509;SDS011;29105;57.764;40.952;2023-01-23T09:40:58;28.92;;;9.88;;
43509;SDS011;29105;57.764;40.952;2023-01-23T09:54:39;31.63;;;9.73;;
43509;SDS011;29105;57.764;40.952;2023-01-23T09:57:15;33.72;;;9.32;;
43509;SDS011;29105;57.764;40.952;2023-01-23T10:02:24;26.90;;;8.25;;
43509;SDS011;29105;57.764;40.952;2023-01-23T10:04:50;25.63;;;8.52;;
43509;SDS011;29105;57.764;40.952;2023-01-23T10:07:30;23.10;;;8.90;;
43509;SDS011;29105;57.764;40.952;2023-01-23T10:12:56;24.40;;;9.18;;
43509;SDS011;29105;57.764;40.952;2023-01-23T10:18:36;26.90;;;9.98;;
43509;SDS011;29105;57.764;40.952;2023-01-23T10:21:29;30.67;;;9.13;;
43509;SDS011;29105;57.764;40.952;2023-01-23T10:24:18;29.95;;;7.60;;
43509;SDS011;29105;57.764;40.952;2023-01-23T10:26:47;29.15;;;8.75;;
43509;SDS011;29105;57.764;40.952;2023-01-23T10:32:03;25.60;;;9.43;;
43509;SDS011;29105;57.764;40.952;2023-01-23T10:37:35;26.48;;;9.18;;
43509;SDS011;29105;57.764;40.952;2023-01-23T10:40:12;24.95;;;9.00;;
43509;SDS011;29105;57.764;40.952;2023-01-23T10:42:39;40.45;;;10.05;;
43509;SDS011;29105;57.764;40.952;2023-01-23T10:45:06;25.83;;;8.52;;
43509;SDS011;29105;57.764;40.952;2023-01-23T10:47:43;32.13;;;8.70;;
43509;SDS011;29105;57.764;40.952;2023-01-23T10:50:10;39.15;;;10.77;;
43509;SDS011;29105;57.764;40.952;2023-01-23T10:52:41;21.40;;;7.85;;
43509;SDS011;29105;57.764;40.952;2023-01-23T10:57:45;33.72;;;9.43;;
43509;SDS011;29105;57.764;40.952;2023-01-23T11:06:07;34.88;;;9.77;;
43509;SDS011;29105;57.764;40.952;2023-01-23T11:08:34;28.25;;;8.40;;
43509;SDS011;29105;57.764;40.952;2023-01-23T11:14:10;22.92;;;8.23;;
43509;SDS011;29105;57.764;40.952;2023-01-23T11:16:42;21.83;;;7.40;;
43509;SDS011;29105;57.764;40.952;2023-01-23T11:19:10;29.20;;;9.13;;
43509;SDS011;29105;57.764;40.952;2023-01-23T11:21:50;27.80;;;9.27;;
43509;SDS011;29105;57.764;40.952;2023-01-23T11:29:26;31.30;;;10.45;;
43509;SDS011;29105;57.764;40.952;2023-01-23T11:31:55;30.35;;;8.25;;
43509;SDS011;29105;57.764;40.952;2023-01-23T11:34:25;28.35;;;8.35;;
43509;SDS011;29105;57.764;40.952;2023-01-23T11:36:58;23.23;;;7.85;;
43509;SDS011;29105;57.764;40.952;2023-01-23T11:42:00;23.02;;;7.28;;
43509;SDS011;29105;57.764;40.952;2023-01-23T11:44:27;38.03;;;8.43;;
43509;SDS011;29105;57.764;40.952;2023-01-23T12:00:31;21.10;;;9.30;;
43509;SDS011;29105;57.764;40.952;2023-01-23T12:05:51;30.73;;;9.20;;
43509;SDS011;29105;57.764;40.952;2023-01-23T12:11:40;28.33;;;9.00;;
43509;SDS011;29105;57.764;40.952;2023-01-23T12:14:31;27.20;;;8.32;;
43509;SDS011;29105;57.764;40.952;2023-01-23T12:32:46;21.60;;;6.93;;
43509;SDS011;29105;57.764;40.952;2023-01-23T12:45:43;29.33;;;8.98;;
43509;SDS011;29105;57.764;40.952;2023-01-23T12:48:18;30.25;;;9.75;;
43509;SDS011;29105;57.764;40.952;2023-01-23T12:50:52;38.30;;;11.53;;
43509;SDS011;29105;57.764;40.952;2023-01-23T12:53:21;41.15;;;12.23;;
43509;SDS011;29105;57.764;40.952;2023-01-23T12:55:56;37.80;;;12.63;;
43509;SDS011;29105;57.764;40.952;2023-01-23T12:58:31;39.55;;;12.10;;
43509;SDS011;29105;57.764;40.952;2023-01-23T13:04:13;30.77;;;8.98;;
43509;SDS011;29105;57.764;40.952;2023-01-23T13:07:02;31.48;;;10.85;;
43509;SDS011;29105;57.764;40.952;2023-01-23T13:12:14;36.28;;;11.20;;
43509;SDS011;29105;57.764;40.952;2023-01-23T13:14:44;38.72;;;10.25;;
43509;SDS011;29105;57.764;40.952;2023-01-23T13:28:40;28.40;;;9.38;;
43509;SDS011;29105;57.764;40.952;2023-01-23T13:31:31;30.17;;;10.23;;
43509;SDS011;29105;57.764;40.952;2023-01-23T13:33:59;40.13;;;12.18;;
43509;SDS011;29105;57.764;40.952;2023-01-23T13:36:29;34.70;;;10.75;;
43509;SDS011;29105;57.764;40.952;2023-01-23T13:39:04;38.53;;;10.65;;
43509;SDS011;29105;57.764;40.952;2023-01-23T13:41:30;31.38;;;11.18;;
43509;SDS011;29105;57.764;40.952;2023-01-23T13:44:01;31.15;;;9.68;;
43509;SDS011;29105;57.764;40.952;2023-01-23T13:52:47;26.85;;;8.57;;
43509;SDS011;29105;57.764;40.952;2023-01-23T13:55:42;34.83;;;9.05;;
43509;SDS011;29105;57.764;40.952;2023-01-23T13:58:28;28.15;;;8.23;;
43509;SDS011;29105;57.764;40.952;2023-01-23T14:03:53;30.23;;;8.93;;
43509;SDS011;29105;57.764;40.952;2023-01-23T14:06:38;24.10;;;7.25;;
43509;SDS011;29105;57.764;40.952;2023-01-23T14:09:19;21.90;;;8.30;;
43509;SDS011;29105;57.764;40.952;2023-01-23T14:11:46;18.70;;;8.88;;
43509;SDS011;29105;57.764;40.952;2023-01-23T14:14:14;22.25;;;8.48;;
43509;SDS011;29105;57.764;40.952;2023-01-23T14:16:59;26.58;;;7.82;;
43509;SDS011;29105;57.764;40.952;2023-01-23T14:21:56;28.70;;;9.43;;
43509;SDS011;29105;57.764;40.952;2023-01-23T14:24:45;26.90;;;9.77;;
43509;SDS011;29105;57.764;40.952;2023-01-23T14:28:00;21.67;;;8.77;;
43509;SDS011;29105;57.764;40.952;2023-01-23T14:30:09;24.30;;;8.23;;
43509;SDS011;29105;57.764;40.952;2023-01-23T14:32:39;26.23;;;8.63;;
43509;SDS011;29105;57.764;40.952;2023-01-23T14:35:14;22.75;;;6.40;;
43509;SDS011;29105;57.764;40.952;2023-01-23T14:37:46;25.90;;;9.27;;
43509;SDS011;29105;57.764;40.952;2023-01-23T14:40:14;29.23;;;8.65;;
43509;SDS011;29105;57.764;40.952;2023-01-23T14:42:41;31.25;;;8.07;;
43509;SDS011;29105;57.764;40.952;2023-01-23T14:45:07;21.55;;;7.80;;
43509;SDS011;29105;57.764;40.952;2023-01-23T14:47:39;26.60;;;8.75;;
43509;SDS011;29105;57.764;40.952;2023-01-23T14:50:10;31.67;;;9.20;;
43509;SDS011;29105;57.764;40.952;2023-01-23T14:52:44;26.55;;;8.77;;
43509;SDS011;29105;57.764;40.952;2023-01-23T14:55:20;29.92;;;9.02;;
43509;SDS011;29105;57.764;40.952;2023-01-23T14:57:48;28.98;;;8.05;;
43509;SDS011;29105;57.764;40.952;2023-01-23T15:00:16;30.92;;;8.20;;
43509;SDS011;29105;57.764;40.952;2023-01-23T15:02:44;31.40;;;9.50;;
43509;SDS011;29105;57.764;40.952;2023-01-23T15:10:16;27.33;;;8.82;;
43509;SDS011;29105;57.764;40.952;2023-01-23T15:12:49;23.65;;;7.07;;
43509;SDS011;29105;57.764;40.952;2023-01-23T15:15:24;25.42;;;7.90;;
43509;SDS011;29105;57.764;40.952;2023-01-23T15:17:56;25.95;;;6.20;;
43509;SDS011;29105;57.764;40.952;2023-01-23T15:20:38;18.33;;;5.65;;
43509;SDS011;29105;57.764;40.952;2023-01-23T15:23:20;25.60;;;7.57;;
43509;SDS011;29105;57.764;40.952;2023-01-23T15:28:58;14.40;;;5.22;;
43509;SDS011;29105;57.764;40.952;2023-01-23T15:31:34;18.00;;;5.45;;
43509;SDS011;29105;57.764;40.952;2023-01-23T15:34:16;19.63;;;7.40;;
43509;SDS011;29105;57.764;40.952;2023-01-23T15:37:14;25.95;;;7.43;;
43509;SDS011;29105;57.764;40.952;2023-01-23T15:44:36;23.77;;;7.55;;
43509;SDS011;29105;57.764;40.952;2023-01-23T15:47:03;20.60;;;5.95;;
43509;SDS011;29105;57.764;40.952;2023-01-23T15:49:30;14.80;;;6.63;;
43509;SDS011;29105;57.764;40.952;2023-01-23T15:52:18;23.20;;;6.15;;
43509;SDS011;29105;57.764;40.952;2023-01-23T15:54:42;15.52;;;5.25;;
43509;SDS011;29105;57.764;40.952;2023-01-23T15:57:11;21.80;;;8.38;;
43509;SDS011;29105;57.764;40.952;2023-01-23T15:59:37;8.68;;;4.75;;
43509;SDS011;29105;57.764;40.952;2023-01-23T16:02:03;19.67;;;5.53;;
43509;SDS011;29105;57.764;40.952;2023-01-23T16:04:35;17.92;;;7.50;;
43509;SDS011;29105;57.764;40.952;2023-01-23T16:07:05;18.10;;;7.45;;
43509;SDS011;29105;57.764;40.952;2023-01-23T16:09:32;17.03;;;6.07;;
43509;SDS011;29105;57.764;40.952;2023-01-23T16:12:01;22.02;;;8.00;;
43509;SDS011;29105;57.764;40.952;2023-01-23T16:14:27;24.55;;;8.20;;
43509;SDS011;29105;57.764;40.952;2023-01-23T16:16:53;14.77;;;6.43;;
43509;SDS011;29105;57.764;40.952;2023-01-23T16:19:19;26.88;;;7.47;;
43509;SDS011;29105;57.764;40.952;2023-01-23T16:21:44;18.65;;;8.38;;
43509;SDS011;29105;57.764;40.952;2023-01-23T16:24:14;19.08;;;8.52;;
43509;SDS011;29105;57.764;40.952;2023-01-23T16:26:47;17.02;;;5.88;;
43509;SDS011;29105;57.764;40.952;2023-01-23T16:31:48;17.25;;;5.53;;
43509;SDS011;29105;57.764;40.952;2023-01-23T16:34:13;19.35;;;6.55;;
43509;SDS011;29105;57.764;40.952;2023-01-23T16:36:41;20.58;;;7.65;;
43509;SDS011;29105;57.764;40.952;2023-01-23T16:39:08;19.90;;;7.85;;
43509;SDS011;29105;57.764;40.952;2023-01-23T16:41:41;12.88;;;4.95;;
43509;SDS011;29105;57.764;40.952;2023-01-23T16:44:10;19.10;;;6.68;;
43509;SDS011;29105;57.764;40.952;2023-01-23T16:46:36;17.40;;;5.78;;
43509;SDS011;29105;57.764;40.952;2023-01-23T16:49:02;13.55;;;5.97;;
43509;SDS011;29105;57.764;40.952;2023-01-23T16:51:28;23.52;;;7.30;;
43509;SDS011;29105;57.764;40.952;2023-01-23T16:53:54;12.30;;;5.65;;
43509;SDS011;29105;57.764;40.952;2023-01-23T16:56:27;13.95;;;3.55;;